sensor_id;sensor_type;location;lat;lon;timestamp;P1;durP1;ratioP1;P2;durP2;ratioP2
34896;SDS011;43407;51.828;-2.298;2022-12-07T00:01:07;10.40;;;7.15;;
34896;SDS011;43407;51.828;-2.298;2022-12-07T00:03:54;11.00;;;7.78;;
34896;SDS011;43407;51.828;-2.298;2022-12-07T00:06:29;11.90;;;8.10;;
34896;SDS011;43407;51.828;-2.298;2022-12-07T00:08:56;12.48;;;7.93;;
34896;SDS011;43407;51.828;-2.298;2022-12-07T00:11:22;11.88;;;8.25;;
34896;SDS011;43407;51.828;-2.298;2022-12-07T00:13:58;11.32;;;8.00;;
34896;SDS011;43407;51.828;-2.298;2022-12-07T00:16:26;10.18;;;7.72;;
34896;SDS011;43407;51.828;-2.298;2022-12-07T00:18:53;10.70;;;7.95;;
34896;SDS011;43407;51.828;-2.298;2022-12-07T00:21:30;11.90;;;7.43;;
34896;SDS011;43407;51.828;-2.298;2022-12-07T00:23:57;10.85;;;7.55;;
34896;SDS011;43407;51.828;-2.298;2022-12-07T00:26:23;10.23;;;8.20;;
34896;SDS011;43407;51.828;-2.298;2022-12-07T00:28:51;12.70;;;8.65;;
34896;SDS011;43407;51.828;-2.298;2022-12-07T00:31:19;12.55;;;9.18;;
34896;SDS011;43407;51.828;-2.298;2022-12-07T00:33:47;12.60;;;8.55;;
34896;SDS011;43407;51.828;-2.298;2022-12-07T00:36:14;12.57;;;7.72;;
34896;SDS011;43407;51.828;-2.298;2022-12-07T00:38:40;9.63;;;7.68;;
34896;SDS011;43407;51.828;-2.298;2022-12-07T00:41:08;12.27;;;8.18;;
34896;SDS011;43407;51.828;-2.298;2022-12-07T00:43:39;11.30;;;8.15;;
34896;SDS011;43407;51.828;-2.298;2022-12-07T00:46:05;8.98;;;7.78;;
34896;SDS011;43407;51.828;-2.298;2022-12-07T00:48:31;11.20;;;8.27;;
34896;SDS011;43407;51.828;-2.298;2022-12-07T00:50:57;11.75;;;7.78;;
34896;SDS011;43407;51.828;-2.298;2022-12-07T00:53:22;11.10;;;7.50;;
34896;SDS011;43407;51.828;-2.298;2022-12-07T00:55:48;8.88;;;7.40;;
34896;SDS011;43407;51.828;-2.298;2022-12-07T00:58:14;13.02;;;7.30;;
34896;SDS011;43407;51.828;-2.298;2022-12-07T01:00:40;9.73;;;7.70;;
34896;SDS011;43407;51.828;-2.298;2022-12-07T01:03:08;11.90;;;8.00;;
34896;SDS011;43407;51.828;-2.298;2022-12-07T01:05:34;13.77;;;9.13;;
34896;SDS011;43407;51.828;-2.298;2022-12-07T01:08:00;12.50;;;7.53;;
34896;SDS011;43407;51.828;-2.298;2022-12-07T01:10:26;10.90;;;7.47;;
34896;SDS011;43407;51.828;-2.298;2022-12-07T01:12:52;13.23;;;8.30;;
34896;SDS011;43407;51.828;-2.298;2022-12-07T01:15:17;16.20;;;9.00;;
34896;SDS011;43407;51.828;-2.298;2022-12-07T01:17:43;13.35;;;9.48;;
34896;SDS011;43407;51.828;-2.298;2022-12-07T01:20:09;11.88;;;8.52;;
34896;SDS011;43407;51.828;-2.298;2022-12-07T01:22:38;11.73;;;8.50;;
34896;SDS011;43407;51.828;-2.298;2022-12-07T01:25:05;15.43;;;9.32;;
34896;SDS011;43407;51.828;-2.298;2022-12-07T01:27:32;14.50;;;8.68;;
34896;SDS011;43407;51.828;-2.298;2022-12-07T01:29:58;10.75;;;8.00;;
34896;SDS011;43407;51.828;-2.298;2022-12-07T01:32:24;12.07;;;8.13;;
34896;SDS011;43407;51.828;-2.298;2022-12-07T01:34:49;12.60;;;8.40;;
34896;SDS011;43407;51.828;-2.298;2022-12-07T01:37:15;13.25;;;8.55;;
34896;SDS011;43407;51.828;-2.298;2022-12-07T01:39:40;10.00;;;7.63;;
34896;SDS011;43407;51.828;-2.298;2022-12-07T01:42:10;11.10;;;6.93;;
34896;SDS011;43407;51.828;-2.298;2022-12-07T01:47:39;13.00;;;7.70;;
34896;SDS011;43407;51.828;-2.298;2022-12-07T01:50:06;14.73;;;8.30;;
34896;SDS011;43407;51.828;-2.298;2022-12-07T01:52:32;15.40;;;8.85;;
34896;SDS011;43407;51.828;-2.298;2022-12-07T01:55:03;12.27;;;8.40;;
34896;SDS011;43407;51.828;-2.298;2022-12-07T01:57:30;12.93;;;8.50;;
34896;SDS011;43407;51.828;-2.298;2022-12-07T01:59:57;16.38;;;9.50;;
34896;SDS011;43407;51.828;-2.298;2022-12-07T02:02:25;16.83;;;11.02;;
34896;SDS011;43407;51.828;-2.298;2022-12-07T02:04:52;17.80;;;9.40;;
34896;SDS011;43407;51.828;-2.298;2022-12-07T02:07:19;14.50;;;9.05;;
34896;SDS011;43407;51.828;-2.298;2022-12-07T02:09:45;14.48;;;9.40;;
34896;SDS011;43407;51.828;-2.298;2022-12-07T02:12:11;11.93;;;8.02;;
34896;SDS011;43407;51.828;-2.298;2022-12-07T02:14:36;16.15;;;9.65;;
34896;SDS011;43407;51.828;-2.298;2022-12-07T02:22:18;14.80;;;8.85;;
34896;SDS011;43407;51.828;-2.298;2022-12-07T02:25:05;12.40;;;8.68;;
34896;SDS011;43407;51.828;-2.298;2022-12-07T02:30:12;16.45;;;8.88;;
34896;SDS011;43407;51.828;-2.298;2022-12-07T02:42:41;9.07;;;6.40;;
34896;SDS011;43407;51.828;-2.298;2022-12-07T02:45:13;12.30;;;7.65;;
34896;SDS011;43407;51.828;-2.298;2022-12-07T02:47:40;11.95;;;7.53;;
34896;SDS011;43407;51.828;-2.298;2022-12-07T02:50:06;9.13;;;7.25;;
34896;SDS011;43407;51.828;-2.298;2022-12-07T02:52:32;12.25;;;7.78;;
34896;SDS011;43407;51.828;-2.298;2022-12-07T02:54:58;11.05;;;7.65;;
34896;SDS011;43407;51.828;-2.298;2022-12-07T03:00:15;12.18;;;7.60;;
34896;SDS011;43407;51.828;-2.298;2022-12-07T03:05:24;12.23;;;6.68;;
34896;SDS011;43407;51.828;-2.298;2022-12-07T03:11:03;8.52;;;6.10;;
34896;SDS011;43407;51.828;-2.298;2022-12-07T03:13:36;14.70;;;6.90;;
34896;SDS011;43407;51.828;-2.298;2022-12-07T03:16:08;15.65;;;7.95;;
34896;SDS011;43407;51.828;-2.298;2022-12-07T03:18:37;12.00;;;6.60;;
34896;SDS011;43407;51.828;-2.298;2022-12-07T03:21:06;11.18;;;6.65;;
34896;SDS011;43407;51.828;-2.298;2022-12-07T03:23:37;13.73;;;6.60;;
34896;SDS011;43407;51.828;-2.298;2022-12-07T03:26:06;9.82;;;6.70;;
34896;SDS011;43407;51.828;-2.298;2022-12-07T03:28:35;10.55;;;7.72;;
34896;SDS011;43407;51.828;-2.298;2022-12-07T03:31:08;12.30;;;7.53;;
34896;SDS011;43407;51.828;-2.298;2022-12-07T03:36:48;12.43;;;7.35;;
34896;SDS011;43407;51.828;-2.298;2022-12-07T03:40:11;13.27;;;7.82;;
34896;SDS011;43407;51.828;-2.298;2022-12-07T03:42:23;12.57;;;8.18;;
34896;SDS011;43407;51.828;-2.298;2022-12-07T03:44:49;13.95;;;8.05;;
34896;SDS011;43407;51.828;-2.298;2022-12-07T03:52:55;10.32;;;7.43;;
34896;SDS011;43407;51.828;-2.298;2022-12-07T03:55:29;11.32;;;7.63;;
34896;SDS011;43407;51.828;-2.298;2022-12-07T03:57:58;11.38;;;7.43;;
34896;SDS011;43407;51.828;-2.298;2022-12-07T04:00:26;10.32;;;7.75;;
34896;SDS011;43407;51.828;-2.298;2022-12-07T04:02:52;9.43;;;6.82;;
34896;SDS011;43407;51.828;-2.298;2022-12-07T04:05:18;8.70;;;6.00;;
34896;SDS011;43407;51.828;-2.298;2022-12-07T04:07:44;8.75;;;7.15;;
34896;SDS011;43407;51.828;-2.298;2022-12-07T04:10:09;8.43;;;6.53;;
34896;SDS011;43407;51.828;-2.298;2022-12-07T04:12:35;9.15;;;6.45;;
34896;SDS011;43407;51.828;-2.298;2022-12-07T04:15:01;10.23;;;6.40;;
34896;SDS011;43407;51.828;-2.298;2022-12-07T04:17:26;8.73;;;6.20;;
34896;SDS011;43407;51.828;-2.298;2022-12-07T04:19:52;7.03;;;6.13;;
34896;SDS011;43407;51.828;-2.298;2022-12-07T04:22:17;9.38;;;6.13;;
34896;SDS011;43407;51.828;-2.298;2022-12-07T04:24:45;7.35;;;5.97;;
34896;SDS011;43407;51.828;-2.298;2022-12-07T04:27:10;8.48;;;6.20;;
34896;SDS011;43407;51.828;-2.298;2022-12-07T04:29:35;11.02;;;6.60;;
34896;SDS011;43407;51.828;-2.298;2022-12-07T04:32:01;7.60;;;5.80;;
34896;SDS011;43407;51.828;-2.298;2022-12-07T04:34:27;8.15;;;5.88;;
34896;SDS011;43407;51.828;-2.298;2022-12-07T04:36:52;8.32;;;5.47;;
34896;SDS011;43407;51.828;-2.298;2022-12-07T04:39:24;8.80;;;6.05;;
34896;SDS011;43407;51.828;-2.298;2022-12-07T04:41:52;7.15;;;5.82;;
34896;SDS011;43407;51.828;-2.298;2022-12-07T04:44:17;7.88;;;5.80;;
34896;SDS011;43407;51.828;-2.298;2022-12-07T04:46:43;7.20;;;5.80;;
34896;SDS011;43407;51.828;-2.298;2022-12-07T04:49:10;8.32;;;5.93;;
34896;SDS011;43407;51.828;-2.298;2022-12-07T04:51:36;8.13;;;5.95;;
34896;SDS011;43407;51.828;-2.298;2022-12-07T04:54:01;5.75;;;5.13;;
34896;SDS011;43407;51.828;-2.298;2022-12-07T04:56:27;7.57;;;5.63;;
34896;SDS011;43407;51.828;-2.298;2022-12-07T04:58:53;7.35;;;5.43;;
34896;SDS011;43407;51.828;-2.298;2022-12-07T05:01:19;6.90;;;5.63;;
34896;SDS011;43407;51.828;-2.298;2022-12-07T05:03:46;6.45;;;5.82;;
34896;SDS011;43407;51.828;-2.298;2022-12-07T05:06:12;7.55;;;6.00;;
34896;SDS011;43407;51.828;-2.298;2022-12-07T05:08:38;8.77;;;6.05;;
34896;SDS011;43407;51.828;-2.298;2022-12-07T05:11:04;9.05;;;6.03;;
34896;SDS011;43407;51.828;-2.298;2022-12-07T05:13:31;8.85;;;5.93;;
34896;SDS011;43407;51.828;-2.298;2022-12-07T05:15:57;10.95;;;6.43;;
34896;SDS011;43407;51.828;-2.298;2022-12-07T05:18:22;8.45;;;6.30;;
34896;SDS011;43407;51.828;-2.298;2022-12-07T05:20:48;8.27;;;6.07;;
34896;SDS011;43407;51.828;-2.298;2022-12-07T05:23:14;8.65;;;6.38;;
34896;SDS011;43407;51.828;-2.298;2022-12-07T05:25:40;7.93;;;5.80;;
34896;SDS011;43407;51.828;-2.298;2022-12-07T05:28:05;8.20;;;6.18;;
34896;SDS011;43407;51.828;-2.298;2022-12-07T05:30:31;6.45;;;5.80;;
34896;SDS011;43407;51.828;-2.298;2022-12-07T05:32:57;7.05;;;5.70;;
34896;SDS011;43407;51.828;-2.298;2022-12-07T05:35:23;8.73;;;6.50;;
34896;SDS011;43407;51.828;-2.298;2022-12-07T05:37:48;7.57;;;5.60;;
34896;SDS011;43407;51.828;-2.298;2022-12-07T05:40:14;9.48;;;6.13;;
34896;SDS011;43407;51.828;-2.298;2022-12-07T05:42:40;7.35;;;5.97;;
34896;SDS011;43407;51.828;-2.298;2022-12-07T05:45:06;8.55;;;6.95;;
34896;SDS011;43407;51.828;-2.298;2022-12-07T05:47:33;9.30;;;6.68;;
34896;SDS011;43407;51.828;-2.298;2022-12-07T05:49:59;8.30;;;6.32;;
34896;SDS011;43407;51.828;-2.298;2022-12-07T05:52:24;7.70;;;6.20;;
34896;SDS011;43407;51.828;-2.298;2022-12-07T05:54:50;10.10;;;7.15;;
34896;SDS011;43407;51.828;-2.298;2022-12-07T05:57:16;8.55;;;6.07;;
34896;SDS011;43407;51.828;-2.298;2022-12-07T05:59:42;7.35;;;5.93;;
34896;SDS011;43407;51.828;-2.298;2022-12-07T06:02:11;6.20;;;5.60;;
34896;SDS011;43407;51.828;-2.298;2022-12-07T06:04:39;6.53;;;5.82;;
34896;SDS011;43407;51.828;-2.298;2022-12-07T06:07:06;8.40;;;5.70;;
34896;SDS011;43407;51.828;-2.298;2022-12-07T06:09:32;6.40;;;5.32;;
34896;SDS011;43407;51.828;-2.298;2022-12-07T06:11:58;6.13;;;5.53;;
34896;SDS011;43407;51.828;-2.298;2022-12-07T06:14:42;7.75;;;5.72;;
34896;SDS011;43407;51.828;-2.298;2022-12-07T06:17:08;6.93;;;6.03;;
34896;SDS011;43407;51.828;-2.298;2022-12-07T06:19:34;14.85;;;5.45;;
34896;SDS011;43407;51.828;-2.298;2022-12-07T06:22:00;8.90;;;5.68;;
34896;SDS011;43407;51.828;-2.298;2022-12-07T06:24:26;10.07;;;6.53;;
34896;SDS011;43407;51.828;-2.298;2022-12-07T06:26:51;10.80;;;6.00;;
34896;SDS011;43407;51.828;-2.298;2022-12-07T06:29:17;9.38;;;6.60;;
34896;SDS011;43407;51.828;-2.298;2022-12-07T06:31:43;7.32;;;5.88;;
34896;SDS011;43407;51.828;-2.298;2022-12-07T06:34:10;8.30;;;6.07;;
34896;SDS011;43407;51.828;-2.298;2022-12-07T06:36:38;10.90;;;6.50;;
34896;SDS011;43407;51.828;-2.298;2022-12-07T06:39:04;8.65;;;6.00;;
34896;SDS011;43407;51.828;-2.298;2022-12-07T06:41:30;7.60;;;5.40;;
34896;SDS011;43407;51.828;-2.298;2022-12-07T06:43:56;6.68;;;5.45;;
34896;SDS011;43407;51.828;-2.298;2022-12-07T06:46:22;7.30;;;6.15;;
34896;SDS011;43407;51.828;-2.298;2022-12-07T06:48:47;9.68;;;6.68;;
34896;SDS011;43407;51.828;-2.298;2022-12-07T06:51:13;11.02;;;6.88;;
34896;SDS011;43407;51.828;-2.298;2022-12-07T06:53:38;9.70;;;7.25;;
34896;SDS011;43407;51.828;-2.298;2022-12-07T06:56:04;8.93;;;6.78;;
34896;SDS011;43407;51.828;-2.298;2022-12-07T06:58:30;6.40;;;5.75;;
34896;SDS011;43407;51.828;-2.298;2022-12-07T07:00:56;8.45;;;6.10;;
34896;SDS011;43407;51.828;-2.298;2022-12-07T07:03:21;7.40;;;6.40;;
34896;SDS011;43407;51.828;-2.298;2022-12-07T07:05:47;8.00;;;6.40;;
34896;SDS011;43407;51.828;-2.298;2022-12-07T07:08:13;8.93;;;6.55;;
34896;SDS011;43407;51.828;-2.298;2022-12-07T07:10:39;8.13;;;6.05;;
34896;SDS011;43407;51.828;-2.298;2022-12-07T07:13:05;11.50;;;6.82;;
34896;SDS011;43407;51.828;-2.298;2022-12-07T07:15:31;6.97;;;5.65;;
34896;SDS011;43407;51.828;-2.298;2022-12-07T07:17:57;8.98;;;6.18;;
34896;SDS011;43407;51.828;-2.298;2022-12-07T07:20:22;7.85;;;6.32;;
34896;SDS011;43407;51.828;-2.298;2022-12-07T07:22:50;7.50;;;5.78;;
34896;SDS011;43407;51.828;-2.298;2022-12-07T07:25:18;7.80;;;5.85;;
34896;SDS011;43407;51.828;-2.298;2022-12-07T07:27:44;6.57;;;4.97;;
34896;SDS011;43407;51.828;-2.298;2022-12-07T07:30:09;8.82;;;6.40;;
34896;SDS011;43407;51.828;-2.298;2022-12-07T07:32:36;12.63;;;6.50;;
34896;SDS011;43407;51.828;-2.298;2022-12-07T07:35:22;8.93;;;6.88;;
34896;SDS011;43407;51.828;-2.298;2022-12-07T07:37:51;10.38;;;7.15;;
34896;SDS011;43407;51.828;-2.298;2022-12-07T07:40:16;9.70;;;6.82;;
34896;SDS011;43407;51.828;-2.298;2022-12-07T07:42:46;10.95;;;7.63;;
34896;SDS011;43407;51.828;-2.298;2022-12-07T07:45:15;10.68;;;6.90;;
34896;SDS011;43407;51.828;-2.298;2022-12-07T07:47:41;9.48;;;6.50;;
34896;SDS011;43407;51.828;-2.298;2022-12-07T07:50:07;10.02;;;7.05;;
34896;SDS011;43407;51.828;-2.298;2022-12-07T07:52:35;9.10;;;6.72;;
34896;SDS011;43407;51.828;-2.298;2022-12-07T07:55:01;7.40;;;6.30;;
34896;SDS011;43407;51.828;-2.298;2022-12-07T07:57:30;13.77;;;7.68;;
34896;SDS011;43407;51.828;-2.298;2022-12-07T07:59:55;10.55;;;7.80;;
34896;SDS011;43407;51.828;-2.298;2022-12-07T08:02:28;11.02;;;7.93;;
34896;SDS011;43407;51.828;-2.298;2022-12-07T08:04:54;13.10;;;7.53;;
34896;SDS011;43407;51.828;-2.298;2022-12-07T08:07:20;10.95;;;7.47;;
34896;SDS011;43407;51.828;-2.298;2022-12-07T08:09:48;9.68;;;7.57;;
34896;SDS011;43407;51.828;-2.298;2022-12-07T08:12:16;8.07;;;6.70;;
34896;SDS011;43407;51.828;-2.298;2022-12-07T08:14:41;8.70;;;6.90;;
34896;SDS011;43407;51.828;-2.298;2022-12-07T08:17:10;11.25;;;7.88;;
34896;SDS011;43407;51.828;-2.298;2022-12-07T08:19:38;8.63;;;7.07;;
34896;SDS011;43407;51.828;-2.298;2022-12-07T08:22:04;10.50;;;7.47;;
34896;SDS011;43407;51.828;-2.298;2022-12-07T08:24:29;8.43;;;6.95;;
34896;SDS011;43407;51.828;-2.298;2022-12-07T08:26:55;9.48;;;6.07;;
34896;SDS011;43407;51.828;-2.298;2022-12-07T08:29:26;7.35;;;5.43;;
34896;SDS011;43407;51.828;-2.298;2022-12-07T08:31:54;7.43;;;6.00;;
34896;SDS011;43407;51.828;-2.298;2022-12-07T08:34:27;8.23;;;7.00;;
34896;SDS011;43407;51.828;-2.298;2022-12-07T08:36:55;10.73;;;7.63;;
34896;SDS011;43407;51.828;-2.298;2022-12-07T08:39:21;9.90;;;7.00;;
34896;SDS011;43407;51.828;-2.298;2022-12-07T08:41:46;12.30;;;7.00;;
34896;SDS011;43407;51.828;-2.298;2022-12-07T08:44:12;12.23;;;7.25;;
34896;SDS011;43407;51.828;-2.298;2022-12-07T08:46:39;9.75;;;7.22;;
34896;SDS011;43407;51.828;-2.298;2022-12-07T08:49:16;9.30;;;6.18;;
34896;SDS011;43407;51.828;-2.298;2022-12-07T08:51:53;7.32;;;6.50;;
34896;SDS011;43407;51.828;-2.298;2022-12-07T08:54:24;11.07;;;6.97;;
34896;SDS011;43407;51.828;-2.298;2022-12-07T08:56:56;11.90;;;7.05;;
34896;SDS011;43407;51.828;-2.298;2022-12-07T08:59:21;9.77;;;6.82;;
34896;SDS011;43407;51.828;-2.298;2022-12-07T09:04:38;11.02;;;7.40;;
34896;SDS011;43407;51.828;-2.298;2022-12-07T09:07:06;8.95;;;6.97;;
34896;SDS011;43407;51.828;-2.298;2022-12-07T09:09:32;10.35;;;7.15;;
34896;SDS011;43407;51.828;-2.298;2022-12-07T09:11:58;11.52;;;7.32;;
34896;SDS011;43407;51.828;-2.298;2022-12-07T09:14:23;9.75;;;7.03;;
34896;SDS011;43407;51.828;-2.298;2022-12-07T09:16:49;9.73;;;6.35;;
34896;SDS011;43407;51.828;-2.298;2022-12-07T09:19:15;9.60;;;7.38;;
34896;SDS011;43407;51.828;-2.298;2022-12-07T09:21:40;8.52;;;7.00;;
34896;SDS011;43407;51.828;-2.298;2022-12-07T09:24:06;8.98;;;7.00;;
34896;SDS011;43407;51.828;-2.298;2022-12-07T09:26:32;8.18;;;6.07;;
34896;SDS011;43407;51.828;-2.298;2022-12-07T09:29:00;8.18;;;6.22;;
34896;SDS011;43407;51.828;-2.298;2022-12-07T09:31:27;13.10;;;7.32;;
34896;SDS011;43407;51.828;-2.298;2022-12-07T09:33:59;7.68;;;6.90;;
34896;SDS011;43407;51.828;-2.298;2022-12-07T09:36:26;7.95;;;6.30;;
34896;SDS011;43407;51.828;-2.298;2022-12-07T09:38:51;10.07;;;7.53;;
34896;SDS011;43407;51.828;-2.298;2022-12-07T09:41:17;7.82;;;6.75;;
34896;SDS011;43407;51.828;-2.298;2022-12-07T09:43:43;8.13;;;6.30;;
34896;SDS011;43407;51.828;-2.298;2022-12-07T09:46:14;8.20;;;5.85;;
34896;SDS011;43407;51.828;-2.298;2022-12-07T09:48:42;7.95;;;6.45;;
34896;SDS011;43407;51.828;-2.298;2022-12-07T09:51:21;8.57;;;6.07;;
34896;SDS011;43407;51.828;-2.298;2022-12-07T09:53:48;6.90;;;5.57;;
34896;SDS011;43407;51.828;-2.298;2022-12-07T09:56:16;10.10;;;5.50;;
34896;SDS011;43407;51.828;-2.298;2022-12-07T09:58:42;10.48;;;5.72;;
34896;SDS011;43407;51.828;-2.298;2022-12-07T10:03:35;6.85;;;5.70;;
34896;SDS011;43407;51.828;-2.298;2022-12-07T10:06:01;5.53;;;4.68;;
34896;SDS011;43407;51.828;-2.298;2022-12-07T10:08:27;6.90;;;4.43;;
34896;SDS011;43407;51.828;-2.298;2022-12-07T10:10:54;6.25;;;4.55;;
34896;SDS011;43407;51.828;-2.298;2022-12-07T10:16:26;12.77;;;3.97;;
34896;SDS011;43407;51.828;-2.298;2022-12-07T10:18:57;5.68;;;4.55;;
34896;SDS011;43407;51.828;-2.298;2022-12-07T10:21:26;5.20;;;4.15;;
34896;SDS011;43407;51.828;-2.298;2022-12-07T10:24:05;10.60;;;4.57;;
34896;SDS011;43407;51.828;-2.298;2022-12-07T10:29:20;4.20;;;3.80;;
34896;SDS011;43407;51.828;-2.298;2022-12-07T10:34:29;5.53;;;4.10;;
34896;SDS011;43407;51.828;-2.298;2022-12-07T10:39:44;8.17;;;4.60;;
34896;SDS011;43407;51.828;-2.298;2022-12-07T10:42:18;7.75;;;4.57;;
34896;SDS011;43407;51.828;-2.298;2022-12-07T10:44:44;12.70;;;5.20;;
34896;SDS011;43407;51.828;-2.298;2022-12-07T10:47:29;8.77;;;4.90;;
34896;SDS011;43407;51.828;-2.298;2022-12-07T10:53:06;8.10;;;5.00;;
34896;SDS011;43407;51.828;-2.298;2022-12-07T10:58:52;6.32;;;5.28;;
34896;SDS011;43407;51.828;-2.298;2022-12-07T11:01:32;5.53;;;5.03;;
34896;SDS011;43407;51.828;-2.298;2022-12-07T11:07:10;8.25;;;5.10;;
34896;SDS011;43407;51.828;-2.298;2022-12-07T11:17:20;7.63;;;5.15;;
34896;SDS011;43407;51.828;-2.298;2022-12-07T11:25:22;5.72;;;4.40;;
34896;SDS011;43407;51.828;-2.298;2022-12-07T11:30:32;6.43;;;4.45;;
34896;SDS011;43407;51.828;-2.298;2022-12-07T11:38:33;5.47;;;4.32;;
34896;SDS011;43407;51.828;-2.298;2022-12-07T11:41:06;8.38;;;5.38;;
34896;SDS011;43407;51.828;-2.298;2022-12-07T11:46:25;9.75;;;4.80;;
34896;SDS011;43407;51.828;-2.298;2022-12-07T11:52:02;11.18;;;5.68;;
34896;SDS011;43407;51.828;-2.298;2022-12-07T11:54:34;8.82;;;5.22;;
34896;SDS011;43407;51.828;-2.298;2022-12-07T11:57:02;7.15;;;4.50;;
34896;SDS011;43407;51.828;-2.298;2022-12-07T12:05:16;7.53;;;4.38;;
34896;SDS011;43407;51.828;-2.298;2022-12-07T12:23:43;4.45;;;3.33;;
34896;SDS011;43407;51.828;-2.298;2022-12-07T12:26:23;4.15;;;2.97;;
34896;SDS011;43407;51.828;-2.298;2022-12-07T12:28:55;4.13;;;3.15;;
34896;SDS011;43407;51.828;-2.298;2022-12-07T12:37:00;2.63;;;2.42;;
34896;SDS011;43407;51.828;-2.298;2022-12-07T12:39:26;3.63;;;2.50;;
34896;SDS011;43407;51.828;-2.298;2022-12-07T12:41:52;3.50;;;2.30;;
34896;SDS011;43407;51.828;-2.298;2022-12-07T12:46:52;4.40;;;2.30;;
34896;SDS011;43407;51.828;-2.298;2022-12-07T12:51:59;3.60;;;2.22;;
34896;SDS011;43407;51.828;-2.298;2022-12-07T12:57:43;2.97;;;1.90;;
34896;SDS011;43407;51.828;-2.298;2022-12-07T13:02:55;2.85;;;2.38;;
34896;SDS011;43407;51.828;-2.298;2022-12-07T13:05:30;4.55;;;2.20;;
34896;SDS011;43407;51.828;-2.298;2022-12-07T13:15:43;4.30;;;2.60;;
34896;SDS011;43407;51.828;-2.298;2022-12-07T13:23:39;6.30;;;2.50;;
34896;SDS011;43407;51.828;-2.298;2022-12-07T13:26:27;4.05;;;2.47;;
34896;SDS011;43407;51.828;-2.298;2022-12-07T13:36:54;2.55;;;2.15;;
34896;SDS011;43407;51.828;-2.298;2022-12-07T13:39:21;3.58;;;2.40;;
34896;SDS011;43407;51.828;-2.298;2022-12-07T13:41:49;5.50;;;2.70;;
34896;SDS011;43407;51.828;-2.298;2022-12-07T13:44:17;3.50;;;2.40;;
34896;SDS011;43407;51.828;-2.298;2022-12-07T13:49:31;4.10;;;2.50;;
34896;SDS011;43407;51.828;-2.298;2022-12-07T13:57:31;3.67;;;2.30;;
34896;SDS011;43407;51.828;-2.298;2022-12-07T13:59:59;3.00;;;2.42;;
34896;SDS011;43407;51.828;-2.298;2022-12-07T14:02:27;4.22;;;2.10;;
34896;SDS011;43407;51.828;-2.298;2022-12-07T14:07:57;3.80;;;1.83;;
34896;SDS011;43407;51.828;-2.298;2022-12-07T14:12:57;3.42;;;2.28;;
34896;SDS011;43407;51.828;-2.298;2022-12-07T14:15:24;3.72;;;1.85;;
34896;SDS011;43407;51.828;-2.298;2022-12-07T14:17:53;3.55;;;2.38;;
34896;SDS011;43407;51.828;-2.298;2022-12-07T14:23:02;3.45;;;2.35;;
34896;SDS011;43407;51.828;-2.298;2022-12-07T14:25:44;4.22;;;2.08;;
34896;SDS011;43407;51.828;-2.298;2022-12-07T14:28:27;3.17;;;1.83;;
34896;SDS011;43407;51.828;-2.298;2022-12-07T14:30:54;3.05;;;2.22;;
34896;SDS011;43407;51.828;-2.298;2022-12-07T14:33:20;3.45;;;2.33;;
34896;SDS011;43407;51.828;-2.298;2022-12-07T14:35:46;4.50;;;2.20;;
34896;SDS011;43407;51.828;-2.298;2022-12-07T14:38:12;3.47;;;1.80;;
34896;SDS011;43407;51.828;-2.298;2022-12-07T14:40:37;4.40;;;1.95;;
34896;SDS011;43407;51.828;-2.298;2022-12-07T14:43:12;2.53;;;1.65;;
34896;SDS011;43407;51.828;-2.298;2022-12-07T14:45:41;2.53;;;1.60;;
34896;SDS011;43407;51.828;-2.298;2022-12-07T14:48:07;3.67;;;1.70;;
34896;SDS011;43407;51.828;-2.298;2022-12-07T14:50:36;2.47;;;1.65;;
34896;SDS011;43407;51.828;-2.298;2022-12-07T14:53:09;1.67;;;1.58;;
34896;SDS011;43407;51.828;-2.298;2022-12-07T14:55:37;3.00;;;1.60;;
34896;SDS011;43407;51.828;-2.298;2022-12-07T14:58:03;2.92;;;1.50;;
34896;SDS011;43407;51.828;-2.298;2022-12-07T15:00:29;2.42;;;1.45;;
34896;SDS011;43407;51.828;-2.298;2022-12-07T15:02:55;2.42;;;1.20;;
34896;SDS011;43407;51.828;-2.298;2022-12-07T15:05:21;1.92;;;1.30;;
34896;SDS011;43407;51.828;-2.298;2022-12-07T15:07:47;1.73;;;1.20;;
34896;SDS011;43407;51.828;-2.298;2022-12-07T15:10:15;1.73;;;1.13;;
34896;SDS011;43407;51.828;-2.298;2022-12-07T15:12:41;2.05;;;1.27;;
34896;SDS011;43407;51.828;-2.298;2022-12-07T15:15:06;1.90;;;1.27;;
34896;SDS011;43407;51.828;-2.298;2022-12-07T15:17:32;2.45;;;1.10;;
34896;SDS011;43407;51.828;-2.298;2022-12-07T15:19:58;2.03;;;0.98;;
34896;SDS011;43407;51.828;-2.298;2022-12-07T15:22:24;2.45;;;1.17;;
34896;SDS011;43407;51.828;-2.298;2022-12-07T15:24:49;1.95;;;1.20;;
34896;SDS011;43407;51.828;-2.298;2022-12-07T15:27:15;2.97;;;1.38;;
34896;SDS011;43407;51.828;-2.298;2022-12-07T15:29:41;1.75;;;1.20;;
34896;SDS011;43407;51.828;-2.298;2022-12-07T15:32:06;1.58;;;1.20;;
34896;SDS011;43407;51.828;-2.298;2022-12-07T15:34:32;1.23;;;1.10;;
34896;SDS011;43407;51.828;-2.298;2022-12-07T15:36:57;2.15;;;1.15;;
34896;SDS011;43407;51.828;-2.298;2022-12-07T15:39:23;1.20;;;1.10;;
34896;SDS011;43407;51.828;-2.298;2022-12-07T15:41:48;1.75;;;1.10;;
34896;SDS011;43407;51.828;-2.298;2022-12-07T15:44:14;2.13;;;1.35;;
34896;SDS011;43407;51.828;-2.298;2022-12-07T15:49:24;2.05;;;1.52;;
34896;SDS011;43407;51.828;-2.298;2022-12-07T15:51:49;1.50;;;1.30;;
34896;SDS011;43407;51.828;-2.298;2022-12-07T15:54:19;1.98;;;1.35;;
34896;SDS011;43407;51.828;-2.298;2022-12-07T15:56:46;3.13;;;1.35;;
34896;SDS011;43407;51.828;-2.298;2022-12-07T15:59:12;2.05;;;1.33;;
34896;SDS011;43407;51.828;-2.298;2022-12-07T16:01:37;1.60;;;1.50;;
34896;SDS011;43407;51.828;-2.298;2022-12-07T16:04:03;2.00;;;1.60;;
34896;SDS011;43407;51.828;-2.298;2022-12-07T16:06:28;1.80;;;1.50;;
34896;SDS011;43407;51.828;-2.298;2022-12-07T16:08:54;2.45;;;1.67;;
34896;SDS011;43407;51.828;-2.298;2022-12-07T16:11:20;2.78;;;1.60;;
34896;SDS011;43407;51.828;-2.298;2022-12-07T16:13:45;3.70;;;1.73;;
34896;SDS011;43407;51.828;-2.298;2022-12-07T16:16:12;2.95;;;2.00;;
34896;SDS011;43407;51.828;-2.298;2022-12-07T16:18:39;2.15;;;1.55;;
34896;SDS011;43407;51.828;-2.298;2022-12-07T16:21:05;3.47;;;1.63;;
34896;SDS011;43407;51.828;-2.298;2022-12-07T16:23:31;1.45;;;1.30;;
34896;SDS011;43407;51.828;-2.298;2022-12-07T16:26:04;2.45;;;1.85;;
34896;SDS011;43407;51.828;-2.298;2022-12-07T16:28:33;2.10;;;1.65;;
34896;SDS011;43407;51.828;-2.298;2022-12-07T16:31:09;3.55;;;1.95;;
34896;SDS011;43407;51.828;-2.298;2022-12-07T16:33:37;3.70;;;2.33;;
34896;SDS011;43407;51.828;-2.298;2022-12-07T16:36:04;2.45;;;2.00;;
34896;SDS011;43407;51.828;-2.298;2022-12-07T16:38:31;2.58;;;1.95;;
34896;SDS011;43407;51.828;-2.298;2022-12-07T16:40:57;2.10;;;1.90;;
34896;SDS011;43407;51.828;-2.298;2022-12-07T16:43:22;3.40;;;2.10;;
34896;SDS011;43407;51.828;-2.298;2022-12-07T16:45:55;3.17;;;2.20;;
34896;SDS011;43407;51.828;-2.298;2022-12-07T16:48:21;4.03;;;2.20;;
34896;SDS011;43407;51.828;-2.298;2022-12-07T16:50:46;3.08;;;2.22;;
34896;SDS011;43407;51.828;-2.298;2022-12-07T16:53:12;5.45;;;2.40;;
34896;SDS011;43407;51.828;-2.298;2022-12-07T16:55:40;4.30;;;2.42;;
34896;SDS011;43407;51.828;-2.298;2022-12-07T16:58:07;3.15;;;1.98;;
34896;SDS011;43407;51.828;-2.298;2022-12-07T17:00:33;3.08;;;2.33;;
34896;SDS011;43407;51.828;-2.298;2022-12-07T17:02:59;5.32;;;2.47;;
34896;SDS011;43407;51.828;-2.298;2022-12-07T17:05:26;4.10;;;2.55;;
34896;SDS011;43407;51.828;-2.298;2022-12-07T17:07:53;5.25;;;2.55;;
34896;SDS011;43407;51.828;-2.298;2022-12-07T17:10:19;3.58;;;2.58;;
34896;SDS011;43407;51.828;-2.298;2022-12-07T17:12:44;3.75;;;2.47;;
34896;SDS011;43407;51.828;-2.298;2022-12-07T17:15:12;4.07;;;2.70;;
34896;SDS011;43407;51.828;-2.298;2022-12-07T17:17:56;4.03;;;2.75;;
34896;SDS011;43407;51.828;-2.298;2022-12-07T17:20:23;4.13;;;2.50;;
34896;SDS011;43407;51.828;-2.298;2022-12-07T17:22:50;3.65;;;2.63;;
34896;SDS011;43407;51.828;-2.298;2022-12-07T17:25:16;3.50;;;2.55;;